sensor_id;sensor_type;location;lat;lon;timestamp;temperature;humidity
24158;DHT22;12316;50.904;4.200;2023-04-03T00:02:17;5.00;99.90
24158;DHT22;12316;50.904;4.200;2023-04-03T00:04:42;5.00;99.90
24158;DHT22;12316;50.904;4.200;2023-04-03T00:07:08;5.80;99.90
24158;DHT22;12316;50.904;4.200;2023-04-03T00:09:34;5.10;99.90
24158;DHT22;12316;50.904;4.200;2023-04-03T00:11:59;5.10;99.90
24158;DHT22;12316;50.904;4.200;2023-04-03T00:14:25;6.90;99.90
24158;DHT22;12316;50.904;4.200;2023-04-03T00:16:52;5.50;99.90
24158;DHT22;12316;50.904;4.200;2023-04-03T00:19:18;5.20;99.90
24158;DHT22;12316;50.904;4.200;2023-04-03T00:21:44;5.20;99.90
24158;DHT22;12316;50.904;4.200;2023-04-03T00:24:10;5.10;99.90
24158;DHT22;12316;50.904;4.200;2023-04-03T00:26:35;4.90;99.90
24158;DHT22;12316;50.904;4.200;2023-04-03T00:29:01;4.80;99.90
24158;DHT22;12316;50.904;4.200;2023-04-03T00:31:26;5.30;99.90
24158;DHT22;12316;50.904;4.200;2023-04-03T00:33:52;5.00;99.90
24158;DHT22;12316;50.904;4.200;2023-04-03T00:36:18;5.10;99.90
24158;DHT22;12316;50.904;4.200;2023-04-03T00:38:43;5.00;99.90
24158;DHT22;12316;50.904;4.200;2023-04-03T00:41:09;4.80;99.90
24158;DHT22;12316;50.904;4.200;2023-04-03T00:43:35;5.10;99.90
24158;DHT22;12316;50.904;4.200;2023-04-03T00:46:01;5.20;99.90
24158;DHT22;12316;50.904;4.200;2023-04-03T00:48:32;5.40;99.90
24158;DHT22;12316;50.904;4.200;2023-04-03T00:50:59;5.20;99.90
24158;DHT22;12316;50.904;4.200;2023-04-03T00:53:33;5.80;99.90
24158;DHT22;12316;50.904;4.200;2023-04-03T00:56:00;5.00;99.90
24158;DHT22;12316;50.904;4.200;2023-04-03T00:58:33;5.00;99.90
24158;DHT22;12316;50.904;4.200;2023-04-03T01:00:59;5.00;99.90
24158;DHT22;12316;50.904;4.200;2023-04-03T01:03:25;5.00;99.90
24158;DHT22;12316;50.904;4.200;2023-04-03T01:05:51;5.50;99.90
24158;DHT22;12316;50.904;4.200;2023-04-03T01:08:17;5.10;99.90
24158;DHT22;12316;50.904;4.200;2023-04-03T01:10:43;4.90;99.90
24158;DHT22;12316;50.904;4.200;2023-04-03T01:13:23;4.90;99.90
24158;DHT22;12316;50.904;4.200;2023-04-03T01:15:50;4.90;99.90
24158;DHT22;12316;50.904;4.200;2023-04-03T01:18:15;5.00;99.90
24158;DHT22;12316;50.904;4.200;2023-04-03T01:20:56;4.90;99.90
24158;DHT22;12316;50.904;4.200;2023-04-03T01:26:15;4.90;99.90
24158;DHT22;12316;50.904;4.200;2023-04-03T01:28:41;4.50;99.90
24158;DHT22;12316;50.904;4.200;2023-04-03T01:31:41;4.70;99.90
24158;DHT22;12316;50.904;4.200;2023-04-03T01:34:08;4.70;99.90
24158;DHT22;12316;50.904;4.200;2023-04-03T01:36:34;4.70;99.90
24158;DHT22;12316;50.904;4.200;2023-04-03T01:39:00;4.70;99.90
24158;DHT22;12316;50.904;4.200;2023-04-03T01:41:26;4.70;99.90
24158;DHT22;12316;50.904;4.200;2023-04-03T01:43:52;4.70;99.90
24158;DHT22;12316;50.904;4.200;2023-04-03T01:46:18;4.60;99.90
24158;DHT22;12316;50.904;4.200;2023-04-03T01:48:45;4.70;99.90
24158;DHT22;12316;50.904;4.200;2023-04-03T01:51:11;4.80;99.90
24158;DHT22;12316;50.904;4.200;2023-04-03T01:53:36;4.70;99.90
24158;DHT22;12316;50.904;4.200;2023-04-03T01:56:03;4.60;99.90
24158;DHT22;12316;50.904;4.200;2023-04-03T01:58:28;4.60;99.90
24158;DHT22;12316;50.904;4.200;2023-04-03T02:00:54;4.50;99.90
24158;DHT22;12316;50.904;4.200;2023-04-03T02:03:20;4.40;99.90
24158;DHT22;12316;50.904;4.200;2023-04-03T02:05:46;4.40;99.90
24158;DHT22;12316;50.904;4.200;2023-04-03T02:08:11;4.50;99.90
24158;DHT22;12316;50.904;4.200;2023-04-03T02:10:38;4.40;99.90
24158;DHT22;12316;50.904;4.200;2023-04-03T02:13:03;4.30;99.90
24158;DHT22;12316;50.904;4.200;2023-04-03T02:15:29;4.20;99.90
24158;DHT22;12316;50.904;4.200;2023-04-03T02:17:55;4.10;99.90
24158;DHT22;12316;50.904;4.200;2023-04-03T02:20:21;4.10;99.90
24158;DHT22;12316;50.904;4.200;2023-04-03T02:22:46;4.10;99.90
24158;DHT22;12316;50.904;4.200;2023-04-03T02:25:12;4.10;99.90
24158;DHT22;12316;50.904;4.200;2023-04-03T02:27:38;4.30;99.90
24158;DHT22;12316;50.904;4.200;2023-04-03T02:30:05;4.40;99.90
24158;DHT22;12316;50.904;4.200;2023-04-03T02:32:31;4.40;99.90
24158;DHT22;12316;50.904;4.200;2023-04-03T02:34:57;4.40;99.90
24158;DHT22;12316;50.904;4.200;2023-04-03T02:37:22;4.40;99.90
24158;DHT22;12316;50.904;4.200;2023-04-03T02:39:48;5.40;99.90
24158;DHT22;12316;50.904;4.200;2023-04-03T02:42:13;4.30;99.90
24158;DHT22;12316;50.904;4.200;2023-04-03T02:44:39;4.40;99.90
24158;DHT22;12316;50.904;4.200;2023-04-03T02:47:05;4.20;99.90
24158;DHT22;12316;50.904;4.200;2023-04-03T02:49:31;4.60;99.90
24158;DHT22;12316;50.904;4.200;2023-04-03T02:51:57;4.40;99.90
24158;DHT22;12316;50.904;4.200;2023-04-03T02:54:23;4.30;99.90
24158;DHT22;12316;50.904;4.200;2023-04-03T02:56:50;4.40;99.90
24158;DHT22;12316;50.904;4.200;2023-04-03T02:59:16;4.30;99.90
24158;DHT22;12316;50.904;4.200;2023-04-03T03:01:42;4.30;99.90
24158;DHT22;12316;50.904;4.200;2023-04-03T03:04:07;4.30;99.90
24158;DHT22;12316;50.904;4.200;2023-04-03T03:06:33;4.10;99.90
24158;DHT22;12316;50.904;4.200;2023-04-03T03:08:59;4.00;99.90
24158;DHT22;12316;50.904;4.200;2023-04-03T03:11:24;4.00;99.90
24158;DHT22;12316;50.904;4.200;2023-04-03T03:13:50;3.90;99.90
24158;DHT22;12316;50.904;4.200;2023-04-03T03:16:16;4.00;99.90
24158;DHT22;12316;50.904;4.200;2023-04-03T03:18:42;4.00;99.90
24158;DHT22;12316;50.904;4.200;2023-04-03T03:21:09;3.90;99.90
24158;DHT22;12316;50.904;4.200;2023-04-03T03:23:35;3.80;99.90
24158;DHT22;12316;50.904;4.200;2023-04-03T03:26:05;4.20;99.90
24158;DHT22;12316;50.904;4.200;2023-04-03T03:28:31;3.90;99.90
24158;DHT22;12316;50.904;4.200;2023-04-03T03:30:58;3.90;99.90
24158;DHT22;12316;50.904;4.200;2023-04-03T03:33:24;3.90;99.90
24158;DHT22;12316;50.904;4.200;2023-04-03T03:35:51;3.90;99.90
24158;DHT22;12316;50.904;4.200;2023-04-03T03:38:17;3.80;99.90
24158;DHT22;12316;50.904;4.200;2023-04-03T03:40:43;3.80;99.90
24158;DHT22;12316;50.904;4.200;2023-04-03T03:43:09;3.80;99.90
24158;DHT22;12316;50.904;4.200;2023-04-03T03:45:34;3.80;99.90
24158;DHT22;12316;50.904;4.200;2023-04-03T03:48:01;3.80;99.90
24158;DHT22;12316;50.904;4.200;2023-04-03T03:50:27;3.70;99.90
24158;DHT22;12316;50.904;4.200;2023-04-03T03:52:52;3.80;99.90
24158;DHT22;12316;50.904;4.200;2023-04-03T03:55:18;3.80;99.90
24158;DHT22;12316;50.904;4.200;2023-04-03T03:57:44;3.80;99.90
24158;DHT22;12316;50.904;4.200;2023-04-03T04:00:10;3.80;99.90
24158;DHT22;12316;50.904;4.200;2023-04-03T04:02:35;3.80;99.90
24158;DHT22;12316;50.904;4.200;2023-04-03T04:05:01;3.80;99.90
24158;DHT22;12316;50.904;4.200;2023-04-03T04:07:27;3.80;99.90
24158;DHT22;12316;50.904;4.200;2023-04-03T04:09:54;3.80;99.90
24158;DHT22;12316;50.904;4.200;2023-04-03T04:12:20;3.80;99.90
24158;DHT22;12316;50.904;4.200;2023-04-03T04:14:46;4.10;99.90
24158;DHT22;12316;50.904;4.200;2023-04-03T04:17:14;3.80;99.90
24158;DHT22;12316;50.904;4.200;2023-04-03T04:19:40;3.70;99.90
24158;DHT22;12316;50.904;4.200;2023-04-03T04:22:06;3.80;99.90
24158;DHT22;12316;50.904;4.200;2023-04-03T04:24:32;3.80;99.90
24158;DHT22;12316;50.904;4.200;2023-04-03T04:26:58;3.80;99.90
24158;DHT22;12316;50.904;4.200;2023-04-03T04:29:24;3.80;99.90
24158;DHT22;12316;50.904;4.200;2023-04-03T04:31:49;3.80;99.90
24158;DHT22;12316;50.904;4.200;2023-04-03T04:34:15;3.70;99.90
24158;DHT22;12316;50.904;4.200;2023-04-03T04:36:41;3.70;99.90
24158;DHT22;12316;50.904;4.200;2023-04-03T04:39:06;3.80;99.90
24158;DHT22;12316;50.904;4.200;2023-04-03T04:41:33;3.60;99.90
24158;DHT22;12316;50.904;4.200;2023-04-03T04:43:58;3.60;99.90
24158;DHT22;12316;50.904;4.200;2023-04-03T04:46:24;3.50;99.90
24158;DHT22;12316;50.904;4.200;2023-04-03T04:48:50;3.50;99.90
24158;DHT22;12316;50.904;4.200;2023-04-03T04:51:16;3.60;99.90
24158;DHT22;12316;50.904;4.200;2023-04-03T04:53:42;3.70;99.90
24158;DHT22;12316;50.904;4.200;2023-04-03T04:56:08;3.60;99.90
24158;DHT22;12316;50.904;4.200;2023-04-03T04:58:34;3.50;99.90
24158;DHT22;12316;50.904;4.200;2023-04-03T05:01:04;3.70;99.90
24158;DHT22;12316;50.904;4.200;2023-04-03T05:03:31;3.60;99.90
24158;DHT22;12316;50.904;4.200;2023-04-03T05:05:56;3.60;99.90
24158;DHT22;12316;50.904;4.200;2023-04-03T05:08:22;3.60;99.90
24158;DHT22;12316;50.904;4.200;2023-04-03T05:10:48;3.60;99.90
24158;DHT22;12316;50.904;4.200;2023-04-03T05:13:13;3.50;99.90
24158;DHT22;12316;50.904;4.200;2023-04-03T05:15:39;3.60;99.90
24158;DHT22;12316;50.904;4.200;2023-04-03T05:18:05;3.60;99.90
24158;DHT22;12316;50.904;4.200;2023-04-03T05:20:32;3.50;99.90
24158;DHT22;12316;50.904;4.200;2023-04-03T05:22:58;3.50;99.90
24158;DHT22;12316;50.904;4.200;2023-04-03T05:25:24;3.50;99.90
24158;DHT22;12316;50.904;4.200;2023-04-03T05:27:50;3.60;99.90
24158;DHT22;12316;50.904;4.200;2023-04-03T05:30:16;3.60;99.90
24158;DHT22;12316;50.904;4.200;2023-04-03T05:32:42;3.60;99.90
24158;DHT22;12316;50.904;4.200;2023-04-03T05:35:07;3.60;99.90
24158;DHT22;12316;50.904;4.200;2023-04-03T05:37:33;3.60;99.90
24158;DHT22;12316;50.904;4.200;2023-04-03T05:39:59;3.60;99.90
24158;DHT22;12316;50.904;4.200;2023-04-03T05:42:25;3.50;99.90
24158;DHT22;12316;50.904;4.200;2023-04-03T05:44:51;3.50;99.90
24158;DHT22;12316;50.904;4.200;2023-04-03T05:47:17;4.00;99.90
24158;DHT22;12316;50.904;4.200;2023-04-03T05:49:43;3.60;99.90
24158;DHT22;12316;50.904;4.200;2023-04-03T05:52:30;3.70;99.90
24158;DHT22;12316;50.904;4.200;2023-04-03T05:54:57;3.70;99.90
24158;DHT22;12316;50.904;4.200;2023-04-03T05:57:23;3.80;99.90
24158;DHT22;12316;50.904;4.200;2023-04-03T05:59:49;3.80;99.90
24158;DHT22;12316;50.904;4.200;2023-04-03T06:02:20;3.80;99.90
24158;DHT22;12316;50.904;4.200;2023-04-03T06:04:47;3.90;99.90
24158;DHT22;12316;50.904;4.200;2023-04-03T06:07:19;3.90;99.90
24158;DHT22;12316;50.904;4.200;2023-04-03T06:09:46;4.00;99.90
24158;DHT22;12316;50.904;4.200;2023-04-03T06:12:12;4.20;99.90
24158;DHT22;12316;50.904;4.200;2023-04-03T06:14:38;4.50;99.90
24158;DHT22;12316;50.904;4.200;2023-04-03T06:17:04;4.60;99.90
24158;DHT22;12316;50.904;4.200;2023-04-03T06:19:30;5.00;99.90
24158;DHT22;12316;50.904;4.200;2023-04-03T06:21:55;4.90;99.90
24158;DHT22;12316;50.904;4.200;2023-04-03T06:24:21;5.20;99.90
24158;DHT22;12316;50.904;4.200;2023-04-03T06:26:49;5.90;99.90
24158;DHT22;12316;50.904;4.200;2023-04-03T06:29:17;5.50;99.90
24158;DHT22;12316;50.904;4.200;2023-04-03T06:31:43;5.40;99.90
24158;DHT22;12316;50.904;4.200;2023-04-03T06:34:10;5.30;99.90
24158;DHT22;12316;50.904;4.200;2023-04-03T06:36:37;5.20;99.90
24158;DHT22;12316;50.904;4.200;2023-04-03T06:39:03;5.20;99.90
24158;DHT22;12316;50.904;4.200;2023-04-03T06:41:28;5.10;99.90
24158;DHT22;12316;50.904;4.200;2023-04-03T06:43:54;5.00;99.90
24158;DHT22;12316;50.904;4.200;2023-04-03T06:46:22;4.90;99.90
24158;DHT22;12316;50.904;4.200;2023-04-03T06:48:48;5.00;99.90
24158;DHT22;12316;50.904;4.200;2023-04-03T06:51:27;5.00;99.90
24158;DHT22;12316;50.904;4.200;2023-04-03T06:53:55;5.00;99.90
24158;DHT22;12316;50.904;4.200;2023-04-03T06:56:21;5.10;99.90
24158;DHT22;12316;50.904;4.200;2023-04-03T06:58:47;5.20;99.90
24158;DHT22;12316;50.904;4.200;2023-04-03T07:01:15;5.30;99.90
24158;DHT22;12316;50.904;4.200;2023-04-03T07:03:42;5.30;99.90
24158;DHT22;12316;50.904;4.200;2023-04-03T07:06:11;5.20;99.90
24158;DHT22;12316;50.904;4.200;2023-04-03T07:08:38;5.30;99.90
24158;DHT22;12316;50.904;4.200;2023-04-03T07:11:04;5.20;99.90
24158;DHT22;12316;50.904;4.200;2023-04-03T07:13:30;5.10;99.90
24158;DHT22;12316;50.904;4.200;2023-04-03T07:15:55;5.00;99.90
24158;DHT22;12316;50.904;4.200;2023-04-03T07:18:22;5.20;99.90
24158;DHT22;12316;50.904;4.200;2023-04-03T07:20:47;5.40;99.90
24158;DHT22;12316;50.904;4.200;2023-04-03T07:23:13;5.50;99.90
24158;DHT22;12316;50.904;4.200;2023-04-03T07:25:44;5.50;99.90
24158;DHT22;12316;50.904;4.200;2023-04-03T07:28:10;5.40;99.90
24158;DHT22;12316;50.904;4.200;2023-04-03T07:30:45;5.40;99.90
24158;DHT22;12316;50.904;4.200;2023-04-03T07:33:12;5.40;99.90
24158;DHT22;12316;50.904;4.200;2023-04-03T07:35:39;5.60;99.90
24158;DHT22;12316;50.904;4.200;2023-04-03T07:38:05;5.50;99.90
24158;DHT22;12316;50.904;4.200;2023-04-03T07:40:32;5.70;99.90
24158;DHT22;12316;50.904;4.200;2023-04-03T07:42:59;5.70;99.90
24158;DHT22;12316;50.904;4.200;2023-04-03T07:45:25;5.70;99.90
24158;DHT22;12316;50.904;4.200;2023-04-03T07:47:51;5.60;99.90
24158;DHT22;12316;50.904;4.200;2023-04-03T07:50:17;5.60;99.90
24158;DHT22;12316;50.904;4.200;2023-04-03T07:52:43;5.70;99.90
24158;DHT22;12316;50.904;4.200;2023-04-03T07:55:09;5.80;99.90
24158;DHT22;12316;50.904;4.200;2023-04-03T07:57:35;5.90;99.90
24158;DHT22;12316;50.904;4.200;2023-04-03T08:00:02;5.90;99.90
24158;DHT22;12316;50.904;4.200;2023-04-03T08:02:28;6.00;99.90
24158;DHT22;12316;50.904;4.200;2023-04-03T08:04:54;6.00;99.90
24158;DHT22;12316;50.904;4.200;2023-04-03T08:07:20;6.00;99.90
24158;DHT22;12316;50.904;4.200;2023-04-03T08:09:46;6.00;99.90
24158;DHT22;12316;50.904;4.200;2023-04-03T08:12:11;5.90;99.90
24158;DHT22;12316;50.904;4.200;2023-04-03T08:14:37;6.10;99.90
24158;DHT22;12316;50.904;4.200;2023-04-03T08:17:03;6.10;99.90
24158;DHT22;12316;50.904;4.200;2023-04-03T08:19:30;6.20;99.90
24158;DHT22;12316;50.904;4.200;2023-04-03T08:21:56;6.10;99.90
24158;DHT22;12316;50.904;4.200;2023-04-03T08:24:24;6.20;99.90
24158;DHT22;12316;50.904;4.200;2023-04-03T08:26:50;6.20;99.90
24158;DHT22;12316;50.904;4.200;2023-04-03T08:29:15;6.30;99.90
24158;DHT22;12316;50.904;4.200;2023-04-03T08:31:41;6.40;99.90
24158;DHT22;12316;50.904;4.200;2023-04-03T08:34:07;6.30;99.90
24158;DHT22;12316;50.904;4.200;2023-04-03T08:36:33;6.40;99.90
24158;DHT22;12316;50.904;4.200;2023-04-03T08:39:01;6.50;99.90
24158;DHT22;12316;50.904;4.200;2023-04-03T08:41:36;6.50;99.90
24158;DHT22;12316;50.904;4.200;2023-04-03T08:44:15;6.60;99.90
24158;DHT22;12316;50.904;4.200;2023-04-03T08:49:29;6.90;99.90
24158;DHT22;12316;50.904;4.200;2023-04-03T08:51:57;7.10;99.90
24158;DHT22;12316;50.904;4.200;2023-04-03T08:54:37;7.00;99.90
24158;DHT22;12316;50.904;4.200;2023-04-03T08:57:06;7.00;99.90
24158;DHT22;12316;50.904;4.200;2023-04-03T08:59:38;7.10;99.90
24158;DHT22;12316;50.904;4.200;2023-04-03T09:02:34;7.20;99.90
24158;DHT22;12316;50.904;4.200;2023-04-03T09:05:02;7.20;99.90
24158;DHT22;12316;50.904;4.200;2023-04-03T09:07:39;7.50;99.90
24158;DHT22;12316;50.904;4.200;2023-04-03T09:10:11;7.20;99.90
24158;DHT22;12316;50.904;4.200;2023-04-03T09:12:41;7.10;99.90
24158;DHT22;12316;50.904;4.200;2023-04-03T09:15:26;7.00;99.90
24158;DHT22;12316;50.904;4.200;2023-04-03T09:21:03;7.30;99.90
24158;DHT22;12316;50.904;4.200;2023-04-03T09:23:47;7.40;99.90
24158;DHT22;12316;50.904;4.200;2023-04-03T09:26:53;7.70;99.90
24158;DHT22;12316;50.904;4.200;2023-04-03T09:29:23;7.60;99.90
24158;DHT22;12316;50.904;4.200;2023-04-03T09:31:56;7.60;99.90
24158;DHT22;12316;50.904;4.200;2023-04-03T09:34:28;7.60;99.90
24158;DHT22;12316;50.904;4.200;2023-04-03T09:36:58;7.60;99.90
24158;DHT22;12316;50.904;4.200;2023-04-03T09:39:27;7.90;99.90
24158;DHT22;12316;50.904;4.200;2023-04-03T09:41:58;7.90;99.90
24158;DHT22;12316;50.904;4.200;2023-04-03T09:44:33;7.70;99.90
24158;DHT22;12316;50.904;4.200;2023-04-03T09:46:59;7.80;99.90
24158;DHT22;12316;50.904;4.200;2023-04-03T09:49:26;7.80;99.90
24158;DHT22;12316;50.904;4.200;2023-04-03T09:51:51;8.00;99.90
24158;DHT22;12316;50.904;4.200;2023-04-03T09:54:35;8.10;99.90
24158;DHT22;12316;50.904;4.200;2023-04-03T09:57:13;8.10;99.90
24158;DHT22;12316;50.904;4.200;2023-04-03T09:59:56;8.10;99.90
24158;DHT22;12316;50.904;4.200;2023-04-03T10:02:32;8.40;99.90
24158;DHT22;12316;50.904;4.200;2023-04-03T10:04:59;8.30;99.90
24158;DHT22;12316;50.904;4.200;2023-04-03T10:07:37;8.40;99.90
24158;DHT22;12316;50.904;4.200;2023-04-03T10:12:43;8.70;99.90
24158;DHT22;12316;50.904;4.200;2023-04-03T10:15:13;8.80;99.90
24158;DHT22;12316;50.904;4.200;2023-04-03T10:20:39;8.80;99.90
24158;DHT22;12316;50.904;4.200;2023-04-03T10:25:46;8.80;99.90
24158;DHT22;12316;50.904;4.200;2023-04-03T10:39:18;9.00;99.90
24158;DHT22;12316;50.904;4.200;2023-04-03T10:47:27;9.20;99.90
24158;DHT22;12316;50.904;4.200;2023-04-03T10:53:05;9.50;99.90
24158;DHT22;12316;50.904;4.200;2023-04-03T10:55:40;9.30;99.90
24158;DHT22;12316;50.904;4.200;2023-04-03T10:58:29;9.30;99.90
24158;DHT22;12316;50.904;4.200;2023-04-03T11:01:02;9.50;99.90
24158;DHT22;12316;50.904;4.200;2023-04-03T11:03:35;9.50;99.90
24158;DHT22;12316;50.904;4.200;2023-04-03T11:06:05;9.50;99.90
24158;DHT22;12316;50.904;4.200;2023-04-03T11:11:19;9.70;99.90
24158;DHT22;12316;50.904;4.200;2023-04-03T11:14:14;9.50;99.90
24158;DHT22;12316;50.904;4.200;2023-04-03T11:16:47;9.50;99.90
24158;DHT22;12316;50.904;4.200;2023-04-03T11:19:33;9.80;99.90
24158;DHT22;12316;50.904;4.200;2023-04-03T11:27:35;9.70;99.90
24158;DHT22;12316;50.904;4.200;2023-04-03T11:30:06;10.00;99.90
24158;DHT22;12316;50.904;4.200;2023-04-03T11:35:19;9.90;99.50
24158;DHT22;12316;50.904;4.200;2023-04-03T11:37:48;10.00;99.90
24158;DHT22;12316;50.904;4.200;2023-04-03T11:42:47;10.30;99.90
24158;DHT22;12316;50.904;4.200;2023-04-03T11:48:01;10.40;99.60
24158;DHT22;12316;50.904;4.200;2023-04-03T11:50:43;10.30;97.10
24158;DHT22;12316;50.904;4.200;2023-04-03T11:58:19;10.20;97.70
24158;DHT22;12316;50.904;4.200;2023-04-03T12:01:03;10.40;97.30
24158;DHT22;12316;50.904;4.200;2023-04-03T12:03:31;10.40;98.10
24158;DHT22;12316;50.904;4.200;2023-04-03T12:21:21;10.70;96.30
24158;DHT22;12316;50.904;4.200;2023-04-03T12:26:35;10.80;97.60
24158;DHT22;12316;50.904;4.200;2023-04-03T12:29:57;10.70;97.00
24158;DHT22;12316;50.904;4.200;2023-04-03T12:43:39;10.50;93.40
24158;DHT22;12316;50.904;4.200;2023-04-03T12:48:48;10.40;93.30
24158;DHT22;12316;50.904;4.200;2023-04-03T12:51:19;10.40;93.70
24158;DHT22;12316;50.904;4.200;2023-04-03T12:53:47;10.40;93.60
24158;DHT22;12316;50.904;4.200;2023-04-03T12:58:46;10.50;92.70
24158;DHT22;12316;50.904;4.200;2023-04-03T13:01:16;10.40;92.40
24158;DHT22;12316;50.904;4.200;2023-04-03T13:03:45;10.50;92.40
24158;DHT22;12316;50.904;4.200;2023-04-03T13:06:39;10.40;92.00
24158;DHT22;12316;50.904;4.200;2023-04-03T13:09:06;10.50;92.10
24158;DHT22;12316;50.904;4.200;2023-04-03T13:11:37;10.50;92.00
24158;DHT22;12316;50.904;4.200;2023-04-03T13:14:16;10.60;92.40
24158;DHT22;12316;50.904;4.200;2023-04-03T13:16:56;10.50;91.60
24158;DHT22;12316;50.904;4.200;2023-04-03T13:19:24;10.60;92.60
24158;DHT22;12316;50.904;4.200;2023-04-03T13:22:01;10.70;91.70
24158;DHT22;12316;50.904;4.200;2023-04-03T13:24:29;10.60;89.40
24158;DHT22;12316;50.904;4.200;2023-04-03T13:26:55;10.60;90.10
24158;DHT22;12316;50.904;4.200;2023-04-03T13:29:34;10.60;90.60
24158;DHT22;12316;50.904;4.200;2023-04-03T13:32:01;10.70;91.00
24158;DHT22;12316;50.904;4.200;2023-04-03T13:34:40;10.70;90.20
24158;DHT22;12316;50.904;4.200;2023-04-03T13:37:06;10.70;90.20
24158;DHT22;12316;50.904;4.200;2023-04-03T13:39:39;10.80;90.30
24158;DHT22;12316;50.904;4.200;2023-04-03T13:42:24;10.90;88.70
24158;DHT22;12316;50.904;4.200;2023-04-03T13:45:09;10.90;88.20
24158;DHT22;12316;50.904;4.200;2023-04-03T13:47:40;10.90;88.50
24158;DHT22;12316;50.904;4.200;2023-04-03T13:50:17;10.90;88.70
24158;DHT22;12316;50.904;4.200;2023-04-03T13:52:59;11.00;88.20
24158;DHT22;12316;50.904;4.200;2023-04-03T13:55:27;11.10;87.80
24158;DHT22;12316;50.904;4.200;2023-04-03T13:58:02;11.00;87.40
24158;DHT22;12316;50.904;4.200;2023-04-03T14:00:47;11.30;90.30
24158;DHT22;12316;50.904;4.200;2023-04-03T14:03:40;11.30;90.70
24158;DHT22;12316;50.904;4.200;2023-04-03T14:06:07;11.30;90.00
24158;DHT22;12316;50.904;4.200;2023-04-03T14:08:34;11.10;87.90
24158;DHT22;12316;50.904;4.200;2023-04-03T14:10:59;11.10;89.70
24158;DHT22;12316;50.904;4.200;2023-04-03T14:13:25;11.20;89.20
24158;DHT22;12316;50.904;4.200;2023-04-03T14:15:51;11.10;88.30
24158;DHT22;12316;50.904;4.200;2023-04-03T14:18:19;11.10;89.90
24158;DHT22;12316;50.904;4.200;2023-04-03T14:20:47;11.10;89.00
24158;DHT22;12316;50.904;4.200;2023-04-03T14:23:12;11.30;90.30
24158;DHT22;12316;50.904;4.200;2023-04-03T14:25:39;11.40;90.30
24158;DHT22;12316;50.904;4.200;2023-04-03T14:28:19;11.40;90.00
24158;DHT22;12316;50.904;4.200;2023-04-03T14:30:47;11.40;90.30
24158;DHT22;12316;50.904;4.200;2023-04-03T14:33:15;11.30;90.40
24158;DHT22;12316;50.904;4.200;2023-04-03T14:35:42;11.30;89.00
24158;DHT22;12316;50.904;4.200;2023-04-03T14:38:29;11.10;89.10
24158;DHT22;12316;50.904;4.200;2023-04-03T14:40:57;11.10;89.90
24158;DHT22;12316;50.904;4.200;2023-04-03T14:43:23;11.10;90.00
24158;DHT22;12316;50.904;4.200;2023-04-03T14:45:49;11.10;89.00
24158;DHT22;12316;50.904;4.200;2023-04-03T14:48:20;11.10;89.40
24158;DHT22;12316;50.904;4.200;2023-04-03T14:50:47;11.10;89.20
24158;DHT22;12316;50.904;4.200;2023-04-03T14:53:13;11.20;87.00
24158;DHT22;12316;50.904;4.200;2023-04-03T14:55:41;11.10;88.10
24158;DHT22;12316;50.904;4.200;2023-04-03T14:58:15;11.00;87.90
24158;DHT22;12316;50.904;4.200;2023-04-03T15:00:43;11.00;87.40
24158;DHT22;12316;50.904;4.200;2023-04-03T15:03:17;11.10;87.50
24158;DHT22;12316;50.904;4.200;2023-04-03T15:05:44;11.30;87.50
24158;DHT22;12316;50.904;4.200;2023-04-03T15:08:21;11.50;88.00
24158;DHT22;12316;50.904;4.200;2023-04-03T15:10:48;11.50;85.40
24158;DHT22;12316;50.904;4.200;2023-04-03T15:13:14;11.40;82.60
24158;DHT22;12316;50.904;4.200;2023-04-03T15:15:40;11.30;84.00
24158;DHT22;12316;50.904;4.200;2023-04-03T15:18:06;11.10;82.30
24158;DHT22;12316;50.904;4.200;2023-04-03T15:20:33;11.20;83.00
24158;DHT22;12316;50.904;4.200;2023-04-03T15:23:00;11.30;83.80
24158;DHT22;12316;50.904;4.200;2023-04-03T15:25:27;11.30;82.80
24158;DHT22;12316;50.904;4.200;2023-04-03T15:27:56;11.30;81.40
24158;DHT22;12316;50.904;4.200;2023-04-03T15:30:22;11.40;79.30
24158;DHT22;12316;50.904;4.200;2023-04-03T15:32:48;11.30;78.60
24158;DHT22;12316;50.904;4.200;2023-04-03T15:35:13;11.20;79.80
24158;DHT22;12316;50.904;4.200;2023-04-03T15:37:39;11.10;79.50
24158;DHT22;12316;50.904;4.200;2023-04-03T15:40:06;11.20;79.40
24158;DHT22;12316;50.904;4.200;2023-04-03T15:42:31;11.20;80.60
24158;DHT22;12316;50.904;4.200;2023-04-03T15:44:57;11.20;79.00
24158;DHT22;12316;50.904;4.200;2023-04-03T15:47:24;11.10;79.30
24158;DHT22;12316;50.904;4.200;2023-04-03T15:49:50;10.90;80.10
24158;DHT22;12316;50.904;4.200;2023-04-03T15:52:16;11.00;80.50
24158;DHT22;12316;50.904;4.200;2023-04-03T15:54:41;11.10;81.60
24158;DHT22;12316;50.904;4.200;2023-04-03T15:57:07;11.20;81.60
24158;DHT22;12316;50.904;4.200;2023-04-03T15:59:32;11.20;80.80
24158;DHT22;12316;50.904;4.200;2023-04-03T16:01:59;11.30;81.50
24158;DHT22;12316;50.904;4.200;2023-04-03T16:04:27;11.30;81.80
24158;DHT22;12316;50.904;4.200;2023-04-03T16:06:52;11.20;80.70
24158;DHT22;12316;50.904;4.200;2023-04-03T16:09:18;11.30;80.00
24158;DHT22;12316;50.904;4.200;2023-04-03T16:11:44;11.10;78.40
24158;DHT22;12316;50.904;4.200;2023-04-03T16:14:10;11.10;80.20
24158;DHT22;12316;50.904;4.200;2023-04-03T16:16:36;11.10;79.70
24158;DHT22;12316;50.904;4.200;2023-04-03T16:19:02;11.10;79.20
24158;DHT22;12316;50.904;4.200;2023-04-03T16:21:28;10.90;80.50
24158;DHT22;12316;50.904;4.200;2023-04-03T16:23:59;11.00;79.80
24158;DHT22;12316;50.904;4.200;2023-04-03T16:26:25;10.90;78.50
24158;DHT22;12316;50.904;4.200;2023-04-03T16:28:52;10.80;78.90
24158;DHT22;12316;50.904;4.200;2023-04-03T16:31:17;10.80;80.00
24158;DHT22;12316;50.904;4.200;2023-04-03T16:33:43;10.80;80.80
24158;DHT22;12316;50.904;4.200;2023-04-03T16:36:10;10.80;80.40
24158;DHT22;12316;50.904;4.200;2023-04-03T16:38:36;10.70;80.80
24158;DHT22;12316;50.904;4.200;2023-04-03T16:41:01;10.70;81.90
24158;DHT22;12316;50.904;4.200;2023-04-03T16:43:30;10.70;83.00
24158;DHT22;12316;50.904;4.200;2023-04-03T16:45:56;10.80;84.10
24158;DHT22;12316;50.904;4.200;2023-04-03T16:48:22;10.80;83.30
24158;DHT22;12316;50.904;4.200;2023-04-03T16:50:49;10.70;82.40
24158;DHT22;12316;50.904;4.200;2023-04-03T16:53:17;10.70;82.70
24158;DHT22;12316;50.904;4.200;2023-04-03T16:55:43;10.70;82.90
24158;DHT22;12316;50.904;4.200;2023-04-03T16:58:08;10.70;82.00
24158;DHT22;12316;50.904;4.200;2023-04-03T17:00:35;10.70;83.40
24158;DHT22;12316;50.904;4.200;2023-04-03T17:03:01;10.70;83.90
24158;DHT22;12316;50.904;4.200;2023-04-03T17:05:27;10.50;83.90
24158;DHT22;12316;50.904;4.200;2023-04-03T17:07:53;10.50;83.30
24158;DHT22;12316;50.904;4.200;2023-04-03T17:10:18;10.50;83.80
24158;DHT22;12316;50.904;4.200;2023-04-03T17:12:44;10.40;83.90
24158;DHT22;12316;50.904;4.200;2023-04-03T17:15:10;10.50;84.00
24158;DHT22;12316;50.904;4.200;2023-04-03T17:17:36;10.40;83.20
24158;DHT22;12316;50.904;4.200;2023-04-03T17:20:02;10.30;84.00
24158;DHT22;12316;50.904;4.200;2023-04-03T17:22:29;10.30;84.80